createdAt,value
2022-11-17T00:02:03.263Z,99949.25
2022-11-17T00:04:30.537Z,99945.84
2022-11-17T00:06:58.504Z,99951.34
2022-11-17T00:09:25.996Z,99950.53
2022-11-17T00:12:11.668Z,99961.22
2022-11-17T00:14:40.906Z,99955.22
2022-11-17T00:17:11.086Z,99961.31
2022-11-17T00:19:57.471Z,99946.72
2022-11-17T00:22:26.177Z,99952.63
2022-11-17T00:24:53.408Z,99942.25
2022-11-17T00:27:20.615Z,99951.78
2022-11-17T00:29:47.858Z,99953.91
2022-11-17T00:32:35.206Z,99947.72
2022-11-17T00:35:02.585Z,99953.84
2022-11-17T00:37:31.050Z,99944.63
2022-11-17T00:40:01.028Z,99937.78
2022-11-17T00:42:28.615Z,99949.94
2022-11-17T00:44:55.829Z,99955.91
2022-11-17T00:47:23.016Z,99954.44
2022-11-17T00:49:50.258Z,99952.69
2022-11-17T00:52:17.432Z,99950.34
2022-11-17T00:54:44.629Z,99953.75
2022-11-17T00:57:11.799Z,99959.94
2022-11-17T00:59:39.016Z,99947.75
2022-11-17T01:02:06.207Z,99944.34
2022-11-17T01:04:33.366Z,99933.13
2022-11-17T01:07:00.608Z,99932.97
2022-11-17T01:09:27.968Z,99934.84
2022-11-17T01:11:55.143Z,99941.84
2022-11-17T01:14:24.287Z,99936.69
2022-11-17T01:16:52.052Z,99928.16
2022-11-17T01:19:19.473Z,99930.78
2022-11-17T01:21:47.119Z,99929.84
2022-11-17T01:24:16.183Z,99937.81
2022-11-17T01:26:44.858Z,99929.16
2022-11-17T01:29:14.419Z,99917.88
2022-11-17T01:31:45.927Z,99919.56
2022-11-17T01:34:13.399Z,99917.81
2022-11-17T01:37:01.570Z,99916.03
2022-11-17T01:39:30.137Z,99914.44
2022-11-17T01:41:57.751Z,99916.28
2022-11-17T01:44:48.210Z,99914.56
2022-11-17T01:47:26.300Z,99917.88
2022-11-17T01:49:56.691Z,99920.63
2022-11-17T01:52:25.079Z,99910.13
2022-11-17T01:54:53.319Z,99922.25
2022-11-17T01:57:28.281Z,99923.88
2022-11-17T01:59:59.518Z,99929.81
2022-11-17T02:02:27.252Z,99911.75
2022-11-17T02:05:08.705Z,99930.13
2022-11-17T02:07:38.402Z,99918.03
2022-11-17T02:10:06.607Z,99915.47
2022-11-17T02:12:34.771Z,99909.38
2022-11-17T02:15:02.204Z,99900.56
2022-11-17T02:17:37.539Z,99898.72
2022-11-17T02:20:17.175Z,99905.72
2022-11-17T02:22:53.256Z,99903.09
2022-11-17T02:25:45.271Z,99898.84
2022-11-17T02:28:21.243Z,99893.63
2022-11-17T02:31:19.069Z,99892.69
2022-11-17T02:34:20.499Z,99887.59
2022-11-17T02:36:57.783Z,99884.28
2022-11-17T02:39:50.193Z,99879.91
2022-11-17T02:42:48.800Z,99882.56
2022-11-17T02:45:22.653Z,99887.78
2022-11-17T02:47:51.810Z,99883.31
2022-11-17T02:50:25.286Z,99873.00
2022-11-17T02:52:55.519Z,99860.00
2022-11-17T02:55:22.691Z,99856.53
2022-11-17T02:57:49.917Z,99850.56
2022-11-17T03:00:20.741Z,99845.28
2022-11-17T03:03:10.353Z,99841.97
2022-11-17T03:05:59.449Z,99860.25
2022-11-17T03:09:04.368Z,99858.38
2022-11-17T03:11:44.572Z,99861.94
2022-11-17T03:14:37.780Z,99870.63
2022-11-17T03:17:14.102Z,99861.94
2022-11-17T03:19:53.294Z,99866.25
2022-11-17T03:22:27.915Z,99869.78
2022-11-17T03:24:59.367Z,99858.44
2022-11-17T03:27:51.036Z,99860.00
2022-11-17T03:30:18.397Z,99866.06
2022-11-17T03:32:50.668Z,99867.78
2022-11-17T03:35:29.019Z,99862.03
2022-11-17T03:38:02.167Z,99866.25
2022-11-17T03:40:31.604Z,99867.09
2022-11-17T03:43:00.267Z,99859.44
2022-11-17T03:45:33.784Z,99854.16
2022-11-17T03:48:07.293Z,99849.78
2022-11-17T03:50:37.560Z,99847.09
2022-11-17T03:53:05.799Z,99855.75
2022-11-17T03:55:47.449Z,99847.94
2022-11-17T03:58:18.407Z,99860.13
2022-11-17T04:00:46.720Z,99852.31
2022-11-17T04:03:13.971Z,99860.13
2022-11-17T04:05:41.220Z,99855.72
2022-11-17T04:08:08.458Z,99860.06
2022-11-17T04:10:55.714Z,99859.22
2022-11-17T04:13:41.505Z,99849.78
2022-11-17T04:16:08.781Z,99850.75
2022-11-17T04:18:35.957Z,99837.59
2022-11-17T04:21:03.226Z,99835.13
2022-11-17T04:23:30.414Z,99843.72
2022-11-17T04:26:16.576Z,99844.63
2022-11-17T04:28:47.279Z,99837.59
2022-11-17T04:31:31.182Z,99834.16
2022-11-17T04:34:03.358Z,99828.06
2022-11-17T04:36:32.621Z,99815.78
2022-11-17T04:39:00.904Z,99818.44
2022-11-17T04:41:48.501Z,99811.31
2022-11-17T04:44:17.166Z,99817.50
2022-11-17T04:46:46.142Z,99816.81
2022-11-17T04:49:16.815Z,99818.28
2022-11-17T04:51:44.480Z,99816.56
2022-11-17T04:54:13.476Z,99817.66
2022-11-17T04:56:40.887Z,99814.97
2022-11-17T04:59:08.213Z,99808.88
2022-11-17T05:01:35.514Z,99809.63
2022-11-17T05:04:05.612Z,99801.97
2022-11-17T05:06:32.696Z,99796.84
2022-11-17T05:09:01.658Z,99802.03
2022-11-17T05:11:48.826Z,99799.34
2022-11-17T05:14:18.294Z,99805.41
2022-11-17T05:17:09.095Z,99807.94
2022-11-17T05:19:38.551Z,99797.53
2022-11-17T05:22:26.446Z,99800.16
2022-11-17T05:24:53.898Z,99792.31
2022-11-17T05:27:22.033Z,99791.47
2022-11-17T05:29:49.535Z,99788.88
2022-11-17T05:32:17.019Z,99783.72
2022-11-17T05:34:44.224Z,99781.97
2022-11-17T05:37:11.476Z,99792.31
2022-11-17T05:39:38.673Z,99788.78
2022-11-17T05:42:05.937Z,99786.19
2022-11-17T05:44:33.116Z,99788.78
2022-11-17T05:47:00.298Z,99779.97
2022-11-17T05:49:27.538Z,99770.47
2022-11-17T05:51:54.713Z,99772.16
2022-11-17T05:54:21.883Z,99772.06
2022-11-17T05:56:49.243Z,99771.22
2022-11-17T05:59:30.576Z,99774.69
2022-11-17T06:02:04.033Z,99766.94
2022-11-17T06:04:31.440Z,99761.56
2022-11-17T06:07:00.183Z,99764.34
2022-11-17T06:09:33.247Z,99765.06
2022-11-17T06:12:05.607Z,99747.78
2022-11-17T06:14:33.835Z,99753.84
2022-11-17T06:17:04.194Z,99760.75
2022-11-17T06:19:41.611Z,99759.81
2022-11-17T06:22:13.535Z,99749.41
2022-11-17T06:24:42.237Z,99751.94
2022-11-17T06:27:11.169Z,99749.16
2022-11-17T06:29:44.063Z,99747.63
2022-11-17T06:32:13.262Z,99738.97
2022-11-17T06:34:40.833Z,99740.59
2022-11-17T06:37:08.005Z,99747.56
2022-11-17T06:39:35.190Z,99742.41
2022-11-17T06:42:02.357Z,99739.72
2022-11-17T06:44:29.554Z,99745.72
2022-11-17T06:46:56.931Z,99741.34
2022-11-17T06:49:24.143Z,99737.78
2022-11-17T06:51:51.530Z,99736.84
2022-11-17T06:54:18.740Z,99735.09
2022-11-17T06:56:46.069Z,99743.84
2022-11-17T06:59:15.299Z,99742.03
2022-11-17T07:01:43.334Z,99742.88
2022-11-17T07:04:10.829Z,99747.19
2022-11-17T07:06:38.487Z,99752.22
2022-11-17T07:09:06.085Z,99742.72
2022-11-17T07:11:36.319Z,99748.75
2022-11-17T07:14:03.563Z,99747.00
2022-11-17T07:16:32.444Z,99747.88
2022-11-17T07:18:59.661Z,99750.38
2022-11-17T07:21:27.025Z,99764.16
2022-11-17T07:23:54.548Z,99752.97
2022-11-17T07:26:21.757Z,99739.09
2022-11-17T07:28:48.930Z,99747.00
2022-11-17T07:31:16.636Z,99736.38
2022-11-17T07:33:43.848Z,99736.56
2022-11-17T07:36:12.385Z,99734.66
2022-11-17T07:38:40.664Z,99723.34
2022-11-17T07:41:09.268Z,99725.88
2022-11-17T07:43:36.832Z,99727.66
2022-11-17T07:46:09.023Z,99724.81
2022-11-17T07:48:36.706Z,99727.41
2022-11-17T07:51:04.820Z,99713.38
2022-11-17T07:53:33.324Z,99723.78
2022-11-17T07:56:05.106Z,99713.38
2022-11-17T07:58:32.726Z,99710.63
2022-11-17T08:01:00.436Z,99710.59
2022-11-17T08:03:27.724Z,99715.13
2022-11-17T08:05:54.878Z,99704.59
2022-11-17T08:08:22.050Z,99700.06
2022-11-17T08:10:49.226Z,99701.84
2022-11-17T08:13:16.469Z,99696.53
2022-11-17T08:15:43.680Z,99689.53
2022-11-17T08:18:10.934Z,99680.72
2022-11-17T08:20:38.230Z,99688.72
2022-11-17T08:23:05.446Z,99703.41
2022-11-17T08:25:32.690Z,99716.44
2022-11-17T08:28:00.031Z,99686.94
2022-11-17T08:30:28.504Z,99688.63
2022-11-17T08:32:55.818Z,99707.63
2022-11-17T08:35:24.691Z,99719.72
2022-11-17T08:37:52.405Z,99705.59
2022-11-17T08:40:19.942Z,99702.97
2022-11-17T08:42:47.194Z,99690.03
2022-11-17T08:45:14.726Z,99709.41
2022-11-17T08:47:41.961Z,99725.81
2022-11-17T08:50:09.673Z,99712.09
2022-11-17T08:52:36.903Z,99717.22
2022-11-17T08:55:05.720Z,99727.00
2022-11-17T08:57:33.621Z,99717.38
2022-11-17T09:00:01.570Z,99719.06
2022-11-17T09:02:28.939Z,99715.28
2022-11-17T09:04:56.109Z,99738.09
2022-11-17T09:07:23.458Z,99728.44
2022-11-17T09:09:50.694Z,99716.13
2022-11-17T09:12:18.955Z,99716.97
2022-11-17T09:14:46.190Z,99711.72
2022-11-17T09:17:13.411Z,99721.28
2022-11-17T09:19:40.578Z,99696.84
2022-11-17T09:22:08.011Z,99723.09
2022-11-17T09:24:35.236Z,99711.59
2022-11-17T09:27:03.570Z,99715.19
2022-11-17T09:29:31.107Z,99716.72
2022-11-17T09:31:58.365Z,99725.47
2022-11-17T09:34:25.802Z,99725.53
2022-11-17T09:36:53.019Z,99735.97
2022-11-17T09:39:21.328Z,99721.09
2022-11-17T09:41:56.098Z,99729.78
2022-11-17T09:44:33.248Z,99715.03
2022-11-17T09:47:19.297Z,99715.84
2022-11-17T09:50:03.866Z,99712.47
2022-11-17T09:52:57.778Z,99702.78
2022-11-17T09:55:36.582Z,99704.56
2022-11-17T09:58:18.139Z,99700.94
2022-11-17T10:00:52.711Z,99703.47
2022-11-17T10:03:22.201Z,99706.19
2022-11-17T10:05:49.313Z,99689.84
2022-11-17T10:08:20.210Z,99695.75
2022-11-17T10:10:49.358Z,99687.84
2022-11-17T10:13:24.088Z,99687.91
2022-11-17T10:16:12.774Z,99681.66
2022-11-17T10:18:40.080Z,99667.88
2022-11-17T10:21:09.130Z,99668.69
2022-11-17T10:23:47.139Z,99669.47
2022-11-17T10:26:15.855Z,99670.31
2022-11-17T10:28:43.294Z,99671.03
2022-11-17T10:31:16.029Z,99674.56
2022-11-17T10:33:44.540Z,99665.00
2022-11-17T10:36:26.882Z,99667.78
2022-11-17T10:38:56.033Z,99670.13
2022-11-17T10:41:28.781Z,99663.28
2022-11-17T10:44:03.853Z,99671.94
2022-11-17T10:46:40.605Z,99672.09
2022-11-17T10:49:28.517Z,99667.59
2022-11-17T10:52:16.237Z,99664.16
2022-11-17T10:54:43.662Z,99663.38
2022-11-17T10:57:23.167Z,99652.88
2022-11-17T10:59:56.688Z,99645.75
2022-11-17T11:02:34.762Z,99640.53
2022-11-17T11:05:12.557Z,99638.72
2022-11-17T11:07:40.934Z,99623.13
2022-11-17T11:10:19.075Z,99630.97
2022-11-17T11:13:08.102Z,99636.06
2022-11-17T11:15:36.558Z,99622.91
2022-11-17T11:18:14.651Z,99609.03
2022-11-17T11:21:05.201Z,99617.53
2022-11-17T11:23:47.772Z,99605.22
2022-11-17T11:26:44.695Z,99601.88
2022-11-17T11:29:36.905Z,99611.19
2022-11-17T11:32:08.463Z,99603.47
2022-11-17T11:34:57.167Z,99612.91
2022-11-17T11:37:33.887Z,99610.22
2022-11-17T11:40:21.775Z,99600.75
2022-11-17T11:43:08.784Z,99600.66
2022-11-17T11:45:56.764Z,99596.25
2022-11-17T11:48:31.981Z,99613.78
2022-11-17T11:51:00.803Z,99602.47
2022-11-17T11:53:32.805Z,99599.91
2022-11-17T11:56:10.299Z,99601.41
2022-11-17T11:58:56.383Z,99605.75
2022-11-17T12:01:24.052Z,99599.59
2022-11-17T12:04:23.662Z,99599.69
2022-11-17T12:07:02.093Z,99598.03
2022-11-17T12:09:51.024Z,99592.69
2022-11-17T12:12:20.895Z,99597.19
2022-11-17T12:15:19.956Z,99584.88
2022-11-17T12:17:55.303Z,99591.13
2022-11-17T12:20:37.069Z,99590.22
2022-11-17T12:23:25.687Z,99567.34
2022-11-17T12:25:59.513Z,99577.97
2022-11-17T12:28:36.709Z,99571.81
2022-11-17T12:31:11.260Z,99569.09
2022-11-17T12:33:53.777Z,99579.63
2022-11-17T12:36:31.548Z,99578.78
2022-11-17T12:39:01.102Z,99582.13
2022-11-17T12:41:50.106Z,99572.53
2022-11-17T12:44:38.588Z,99570.72
2022-11-17T12:47:28.415Z,99581.06
2022-11-17T12:50:17.343Z,99563.78
2022-11-17T12:52:59.551Z,99577.75
2022-11-17T12:55:31.559Z,99575.03
2022-11-17T12:58:19.415Z,99579.25
2022-11-17T13:01:28.291Z,99574.03
2022-11-17T13:03:59.706Z,99571.50
2022-11-17T13:06:36.295Z,99576.91
2022-11-17T13:09:11.397Z,99573.44
2022-11-17T13:11:38.865Z,99569.09
2022-11-17T13:14:11.256Z,99553.53
2022-11-17T13:16:48.622Z,99575.41
2022-11-17T13:19:36.916Z,99571.03
2022-11-17T13:22:17.111Z,99569.31
2022-11-17T13:24:46.468Z,99565.75
2022-11-17T13:27:24.016Z,99571.16
2022-11-17T13:30:11.838Z,99551.78
2022-11-17T13:32:40.036Z,99562.13
2022-11-17T13:35:32.368Z,99553.53
2022-11-17T13:38:06.125Z,99562.28
2022-11-17T13:40:34.734Z,99572.00
2022-11-17T13:43:03.072Z,99547.53
2022-11-17T13:45:30.546Z,99537.88
2022-11-17T13:47:59.347Z,99547.44
2022-11-17T13:50:29.497Z,99557.06
2022-11-17T13:52:59.899Z,99556.13
2022-11-17T13:55:27.971Z,99555.38
2022-11-17T13:57:59.650Z,99555.38
2022-11-17T14:00:27.767Z,99545.94
2022-11-17T14:03:05.611Z,99557.25
2022-11-17T14:05:33.648Z,99540.78
2022-11-17T14:08:24.660Z,99555.78
2022-11-17T14:11:13.593Z,99541.16
2022-11-17T14:13:45.492Z,99541.16
2022-11-17T14:16:27.196Z,99551.50
2022-11-17T14:18:59.827Z,99553.31
2022-11-17T14:21:27.656Z,99557.13
2022-11-17T14:24:04.182Z,99553.16
2022-11-17T14:26:31.466Z,99564.72
2022-11-17T14:29:07.352Z,99551.97
2022-11-17T14:31:34.526Z,99552.44
2022-11-17T14:34:01.694Z,99553.56
2022-11-17T14:36:28.971Z,99557.22
2022-11-17T14:38:56.203Z,99561.69
2022-11-17T14:41:23.386Z,99559.94
2022-11-17T14:43:51.321Z,99552.22
2022-11-17T14:46:24.535Z,99561.81
2022-11-17T14:48:52.764Z,99547.38
2022-11-17T14:51:20.879Z,99549.16
2022-11-17T14:53:48.390Z,99551.91
2022-11-17T14:56:17.997Z,99551.94
2022-11-17T14:58:46.601Z,99551.25
2022-11-17T15:01:20.309Z,99554.75
2022-11-17T15:03:47.804Z,99550.47
2022-11-17T15:06:19.390Z,99556.66
2022-11-17T15:08:47.783Z,99557.63
2022-11-17T15:11:17.025Z,99558.56
2022-11-17T15:13:44.448Z,99561.25
2022-11-17T15:16:12.084Z,99564.81
2022-11-17T15:18:39.432Z,99557.00
2022-11-17T15:21:08.294Z,99565.66
2022-11-17T15:23:38.374Z,99566.72
2022-11-17T15:26:06.692Z,99554.78
2022-11-17T15:28:34.050Z,99568.66
2022-11-17T15:31:09.136Z,99561.84
2022-11-17T15:33:36.847Z,99561.06
2022-11-17T15:36:05.366Z,99574.94
2022-11-17T15:38:33.027Z,99560.41
2022-11-17T15:41:00.218Z,99551.63
2022-11-17T15:43:32.207Z,99556.13
2022-11-17T15:46:04.701Z,99554.47
2022-11-17T15:48:42.308Z,99562.41
2022-11-17T15:51:17.291Z,99567.56
2022-11-17T15:53:46.367Z,99562.28
2022-11-17T15:56:23.427Z,99563.13
2022-11-17T15:58:56.475Z,99568.47
2022-11-17T16:01:42.176Z,99562.34
2022-11-17T16:04:15.494Z,99543.44
2022-11-17T16:06:43.878Z,99554.78
2022-11-17T16:09:12.266Z,99564.94
2022-11-17T16:11:40.069Z,99554.47
2022-11-17T16:14:07.382Z,99560.66
2022-11-17T16:16:37.342Z,99562.41
2022-11-17T16:19:04.966Z,99561.69
2022-11-17T16:21:32.218Z,99565.28
2022-11-17T16:24:00.776Z,99566.13
2022-11-17T16:26:28.671Z,99574.84
2022-11-17T16:29:00.745Z,99560.13
2022-11-17T16:31:29.848Z,99563.53
2022-11-17T16:33:59.358Z,99560.91
2022-11-17T16:36:34.542Z,99555.78
2022-11-17T16:39:04.955Z,99556.69
2022-11-17T16:41:37.778Z,99563.44
2022-11-17T16:44:10.526Z,99561.09
2022-11-17T16:46:38.362Z,99553.28
2022-11-17T16:49:07.689Z,99551.56
2022-11-17T16:51:35.092Z,99555.88
2022-11-17T16:54:04.390Z,99553.25
2022-11-17T16:56:32.378Z,99556.63
2022-11-17T16:58:59.979Z,99553.09
2022-11-17T17:01:30.342Z,99555.97
2022-11-17T17:03:59.303Z,99549.81
2022-11-17T17:06:26.903Z,99553.34
2022-11-17T17:09:02.865Z,99550.75
2022-11-17T17:11:31.892Z,99549.06
2022-11-17T17:14:04.567Z,99555.19
2022-11-17T17:16:33.519Z,99555.19
2022-11-17T17:19:04.021Z,99554.34
2022-11-17T17:21:31.383Z,99555.16
2022-11-17T17:23:58.740Z,99553.53
2022-11-17T17:26:28.261Z,99559.53
2022-11-17T17:28:57.122Z,99556.88
2022-11-17T17:31:25.554Z,99557.72
2022-11-17T17:33:53.086Z,99565.50
2022-11-17T17:36:22.227Z,99555.19
2022-11-17T17:38:55.465Z,99564.75
2022-11-17T17:41:29.210Z,99560.22
2022-11-17T17:43:59.036Z,99568.88
2022-11-17T17:46:27.169Z,99564.59
2022-11-17T17:48:54.393Z,99563.75
2022-11-17T17:51:24.705Z,99577.75
2022-11-17T17:53:53.321Z,99561.34
2022-11-17T17:56:21.731Z,99561.44
2022-11-17T17:58:50.794Z,99565.81
2022-11-17T18:01:29.527Z,99566.78
2022-11-17T18:04:01.259Z,99573.78
2022-11-17T18:06:28.467Z,99569.41
2022-11-17T18:08:56.978Z,99565.06
2022-11-17T18:11:24.278Z,99576.22
2022-11-17T18:13:53.032Z,99572.00
2022-11-17T18:16:28.618Z,99580.59
2022-11-17T18:18:57.844Z,99571.22
2022-11-17T18:21:25.726Z,99573.91
2022-11-17T18:23:53.950Z,99567.81
2022-11-17T18:26:26.787Z,99574.75
2022-11-17T18:28:58.866Z,99574.78
2022-11-17T18:31:28.430Z,99583.50
2022-11-17T18:34:01.091Z,99579.22
2022-11-17T18:36:29.433Z,99584.47
2022-11-17T18:38:58.561Z,99589.63
2022-11-17T18:41:26.971Z,99593.06
2022-11-17T18:43:55.479Z,99593.94
2022-11-17T18:46:24.048Z,99590.53
2022-11-17T18:48:52.095Z,99584.47
2022-11-17T18:51:22.002Z,99589.63
2022-11-17T18:53:51.546Z,99593.13
2022-11-17T18:56:24.078Z,99588.00
2022-11-17T18:58:52.023Z,99591.44
2022-11-17T19:01:23.889Z,99594.88
2022-11-17T19:03:53.408Z,99603.59
2022-11-17T19:06:21.239Z,99593.16
2022-11-17T19:08:48.646Z,99588.06
2022-11-17T19:11:17.186Z,99590.53
2022-11-17T19:13:45.141Z,99593.97
2022-11-17T19:16:13.388Z,99593.28
2022-11-17T19:18:41.105Z,99591.50
2022-11-17T19:21:11.408Z,99589.69
2022-11-17T19:23:40.132Z,99598.47
2022-11-17T19:26:10.041Z,99589.13
2022-11-17T19:28:37.693Z,99584.88
2022-11-17T19:31:16.877Z,99589.91
2022-11-17T19:33:45.316Z,99593.41
2022-11-17T19:36:17.858Z,99608.13
2022-11-17T19:38:47.201Z,99600.41
2022-11-17T19:41:16.396Z,99611.78
2022-11-17T19:43:45.441Z,99601.28
2022-11-17T19:46:13.887Z,99599.53
2022-11-17T19:48:41.878Z,99591.97
2022-11-17T19:51:33.264Z,99598.91
2022-11-17T19:54:05.611Z,99593.56
2022-11-17T19:56:32.824Z,99595.50
2022-11-17T19:59:00.025Z,99586.81
2022-11-17T20:01:28.693Z,99596.44
2022-11-17T20:03:57.489Z,99601.72
2022-11-17T20:06:29.377Z,99602.56
2022-11-17T20:08:57.513Z,99599.88
2022-11-17T20:11:26.879Z,99611.22
2022-11-17T20:13:54.718Z,99602.50
2022-11-17T20:16:24.624Z,99599.84
2022-11-17T20:18:54.566Z,99602.50
2022-11-17T20:21:22.037Z,99606.06
2022-11-17T20:23:49.552Z,99611.25
2022-11-17T20:26:23.371Z,99611.28
2022-11-17T20:28:51.207Z,99609.53
2022-11-17T20:31:26.953Z,99609.47
2022-11-17T20:34:00.291Z,99613.72
2022-11-17T20:36:29.437Z,99625.19
2022-11-17T20:39:01.059Z,99615.75
2022-11-17T20:41:28.761Z,99618.31
2022-11-17T20:43:57.354Z,99621.88
2022-11-17T20:46:25.261Z,99620.25
2022-11-17T20:48:52.524Z,99629.81
2022-11-17T20:51:21.784Z,99623.78
2022-11-17T20:53:50.389Z,99625.66
2022-11-17T20:56:18.074Z,99620.31
2022-11-17T20:58:45.616Z,99624.69
2022-11-17T21:01:21.132Z,99620.56
2022-11-17T21:03:49.179Z,99634.50
2022-11-17T21:06:17.162Z,99631.88
2022-11-17T21:08:45.364Z,99627.59
2022-11-17T21:11:44.058Z,99639.88
2022-11-17T21:14:12.772Z,99622.59
2022-11-17T21:16:45.572Z,99639.94
2022-11-17T21:19:14.168Z,99627.81
2022-11-17T21:21:41.681Z,99635.53
2022-11-17T21:24:09.413Z,99634.66
2022-11-17T21:26:36.595Z,99643.25
2022-11-17T21:29:06.732Z,99642.53
2022-11-17T21:31:34.535Z,99637.47
2022-11-17T21:34:04.213Z,99645.28
2022-11-17T21:36:32.299Z,99650.56
2022-11-17T21:38:59.671Z,99648.84
2022-11-17T21:41:29.085Z,99654.78
2022-11-17T21:43:58.153Z,99648.84
2022-11-17T21:46:27.160Z,99652.31
2022-11-17T21:48:56.452Z,99643.66
2022-11-17T21:51:28.010Z,99647.97
2022-11-17T21:53:56.662Z,99650.72
2022-11-17T21:56:27.226Z,99646.28
2022-11-17T21:58:55.597Z,99647.19
2022-11-17T22:01:23.170Z,99657.69
2022-11-17T22:03:50.556Z,99656.78
2022-11-17T22:06:28.313Z,99661.09
2022-11-17T22:08:56.633Z,99654.13
2022-11-17T22:11:35.691Z,99652.47
2022-11-17T22:14:08.038Z,99664.53
2022-11-17T22:16:37.093Z,99663.81
2022-11-17T22:19:05.119Z,99656.00
2022-11-17T22:21:32.847Z,99659.53
2022-11-17T22:24:00.467Z,99668.22
2022-11-17T22:26:27.690Z,99667.34
2022-11-17T22:28:55.740Z,99666.34
2022-11-17T22:31:23.323Z,99667.31
2022-11-17T22:33:51.175Z,99669.91
2022-11-17T22:36:18.924Z,99675.03
2022-11-17T22:38:48.600Z,99671.66
2022-11-17T22:41:15.833Z,99676.78
2022-11-17T22:43:43.267Z,99681.28
2022-11-17T22:46:11.806Z,99678.66
2022-11-17T22:48:39.023Z,99685.59
2022-11-17T22:51:08.176Z,99689.91
2022-11-17T22:53:35.695Z,99688.09
2022-11-17T22:56:07.617Z,99693.16
2022-11-17T22:58:35.148Z,99682.00
2022-11-17T23:01:06.892Z,99688.75
2022-11-17T23:03:34.401Z,99683.56
2022-11-17T23:06:05.582Z,99692.38
2022-11-17T23:08:32.867Z,99688.72
2022-11-17T23:11:35.056Z,99683.50
2022-11-17T23:13:52.746Z,99687.81
2022-11-17T23:16:19.931Z,99682.00
2022-11-17T23:18:47.203Z,99681.94
2022-11-17T23:21:15.256Z,99701.03
2022-11-17T23:23:42.646Z,99684.69
2022-11-17T23:26:11.716Z,99684.69
2022-11-17T23:28:42.201Z,99688.09
2022-11-17T23:31:14.040Z,99685.59
2022-11-17T23:33:43.462Z,99689.00
2022-11-17T23:36:14.398Z,99708.13
2022-11-17T23:38:41.686Z,99705.53
2022-11-17T23:41:11.831Z,99708.19
2022-11-17T23:43:39.645Z,99709.78
2022-11-17T23:46:17.873Z,99706.34
2022-11-17T23:48:45.383Z,99718.41
2022-11-17T23:51:18.102Z,99718.53
2022-11-17T23:53:46.248Z,99716.75
2022-11-17T23:56:13.858Z,99713.44
2022-11-17T23:58:41.144Z,99716.88
